sensor_id;sensor_type;location;lat;lon;timestamp;temperature;humidity
39925;DHT22;25592;49.986;11.618;2023-02-12T00:00:05;5.00;99.90
39925;DHT22;25592;49.986;11.618;2023-02-12T00:02:50;5.00;99.90
39925;DHT22;25592;49.986;11.618;2023-02-12T00:05:37;5.00;99.90
39925;DHT22;25592;49.986;11.618;2023-02-12T00:08:22;5.00;99.90
39925;DHT22;25592;49.986;11.618;2023-02-12T00:11:18;5.00;99.90
39925;DHT22;25592;49.986;11.618;2023-02-12T00:14:04;5.00;99.90
39925;DHT22;25592;49.986;11.618;2023-02-12T00:16:50;5.00;99.90
39925;DHT22;25592;49.986;11.618;2023-02-12T00:19:35;5.00;99.90
39925;DHT22;25592;49.986;11.618;2023-02-12T00:22:20;5.00;99.90
39925;DHT22;25592;49.986;11.618;2023-02-12T00:25:06;5.00;99.90
39925;DHT22;25592;49.986;11.618;2023-02-12T00:27:51;5.00;99.90
39925;DHT22;25592;49.986;11.618;2023-02-12T00:30:37;5.00;99.90
39925;DHT22;25592;49.986;11.618;2023-02-12T00:33:22;5.00;99.90
39925;DHT22;25592;49.986;11.618;2023-02-12T00:36:09;4.90;99.90
39925;DHT22;25592;49.986;11.618;2023-02-12T00:38:57;4.90;99.90
39925;DHT22;25592;49.986;11.618;2023-02-12T00:41:42;5.00;99.90
39925;DHT22;25592;49.986;11.618;2023-02-12T00:44:28;5.00;99.90
39925;DHT22;25592;49.986;11.618;2023-02-12T00:47:13;5.00;99.90
39925;DHT22;25592;49.986;11.618;2023-02-12T00:50:00;5.00;99.90
39925;DHT22;25592;49.986;11.618;2023-02-12T00:52:46;4.90;99.90
39925;DHT22;25592;49.986;11.618;2023-02-12T00:55:31;4.90;99.90
39925;DHT22;25592;49.986;11.618;2023-02-12T00:58:17;4.90;99.90
39925;DHT22;25592;49.986;11.618;2023-02-12T01:01:03;4.90;99.90
39925;DHT22;25592;49.986;11.618;2023-02-12T01:03:48;4.90;99.90
39925;DHT22;25592;49.986;11.618;2023-02-12T01:06:34;5.00;99.90
39925;DHT22;25592;49.986;11.618;2023-02-12T01:09:19;5.00;99.90
39925;DHT22;25592;49.986;11.618;2023-02-12T01:12:05;5.00;99.90
39925;DHT22;25592;49.986;11.618;2023-02-12T01:14:50;5.00;99.90
39925;DHT22;25592;49.986;11.618;2023-02-12T01:17:36;5.00;99.90
39925;DHT22;25592;49.986;11.618;2023-02-12T01:20:23;5.00;99.90
39925;DHT22;25592;49.986;11.618;2023-02-12T01:23:08;4.90;99.90
39925;DHT22;25592;49.986;11.618;2023-02-12T01:25:54;4.90;99.90
39925;DHT22;25592;49.986;11.618;2023-02-12T01:28:41;5.00;99.90
39925;DHT22;25592;49.986;11.618;2023-02-12T01:31:30;5.00;99.90
39925;DHT22;25592;49.986;11.618;2023-02-12T01:34:16;5.00;99.90
39925;DHT22;25592;49.986;11.618;2023-02-12T01:37:02;5.00;99.90
39925;DHT22;25592;49.986;11.618;2023-02-12T01:39:47;5.00;99.90
39925;DHT22;25592;49.986;11.618;2023-02-12T01:42:33;4.90;99.90
39925;DHT22;25592;49.986;11.618;2023-02-12T01:48:06;4.90;99.90
39925;DHT22;25592;49.986;11.618;2023-02-12T01:50:53;5.00;99.90
39925;DHT22;25592;49.986;11.618;2023-02-12T01:53:49;5.00;99.90
39925;DHT22;25592;49.986;11.618;2023-02-12T01:56:35;5.00;99.90
39925;DHT22;25592;49.986;11.618;2023-02-12T01:59:21;5.00;99.90
39925;DHT22;25592;49.986;11.618;2023-02-12T02:02:06;5.00;99.90
39925;DHT22;25592;49.986;11.618;2023-02-12T02:04:57;5.00;99.90
39925;DHT22;25592;49.986;11.618;2023-02-12T02:07:44;5.00;99.90
39925;DHT22;25592;49.986;11.618;2023-02-12T02:10:30;5.00;99.90
39925;DHT22;25592;49.986;11.618;2023-02-12T02:13:15;5.00;99.90
39925;DHT22;25592;49.986;11.618;2023-02-12T02:16:25;5.00;99.90
39925;DHT22;25592;49.986;11.618;2023-02-12T02:19:30;5.00;99.90
39925;DHT22;25592;49.986;11.618;2023-02-12T02:29:04;5.00;99.90
39925;DHT22;25592;49.986;11.618;2023-02-12T02:31:59;5.00;99.90
39925;DHT22;25592;49.986;11.618;2023-02-12T02:34:54;5.00;99.90
39925;DHT22;25592;49.986;11.618;2023-02-12T02:37:54;5.00;99.90
39925;DHT22;25592;49.986;11.618;2023-02-12T02:40:54;5.10;99.90
39925;DHT22;25592;49.986;11.618;2023-02-12T02:43:48;5.00;99.90
39925;DHT22;25592;49.986;11.618;2023-02-12T02:46:47;5.00;99.90
39925;DHT22;25592;49.986;11.618;2023-02-12T02:49:38;5.00;99.90
39925;DHT22;25592;49.986;11.618;2023-02-12T02:52:47;5.10;99.90
39925;DHT22;25592;49.986;11.618;2023-02-12T02:55:47;5.10;99.90
39925;DHT22;25592;49.986;11.618;2023-02-12T02:58:43;5.00;99.90
39925;DHT22;25592;49.986;11.618;2023-02-12T03:01:38;5.00;99.90
39925;DHT22;25592;49.986;11.618;2023-02-12T03:04:30;5.10;99.90
39925;DHT22;25592;49.986;11.618;2023-02-12T03:07:31;5.10;99.90
39925;DHT22;25592;49.986;11.618;2023-02-12T03:10:26;5.10;99.90
39925;DHT22;25592;49.986;11.618;2023-02-12T03:13:14;5.00;99.90
39925;DHT22;25592;49.986;11.618;2023-02-12T03:16:08;5.10;99.90
39925;DHT22;25592;49.986;11.618;2023-02-12T03:19:07;5.10;99.90
39925;DHT22;25592;49.986;11.618;2023-02-12T03:21:59;5.10;99.90
39925;DHT22;25592;49.986;11.618;2023-02-12T03:24:53;5.00;99.90
39925;DHT22;25592;49.986;11.618;2023-02-12T03:27:52;5.10;99.90
39925;DHT22;25592;49.986;11.618;2023-02-12T03:30:51;5.10;99.90
39925;DHT22;25592;49.986;11.618;2023-02-12T03:37:08;5.10;99.90
39925;DHT22;25592;49.986;11.618;2023-02-12T03:43:20;5.10;99.90
39925;DHT22;25592;49.986;11.618;2023-02-12T03:46:27;5.10;99.90
39925;DHT22;25592;49.986;11.618;2023-02-12T03:49:20;5.10;99.90
39925;DHT22;25592;49.986;11.618;2023-02-12T03:52:07;5.10;99.90
39925;DHT22;25592;49.986;11.618;2023-02-12T03:54:52;5.10;99.90
39925;DHT22;25592;49.986;11.618;2023-02-12T03:57:48;5.10;99.90
39925;DHT22;25592;49.986;11.618;2023-02-12T04:00:36;5.10;99.90
39925;DHT22;25592;49.986;11.618;2023-02-12T04:03:22;5.10;99.90
39925;DHT22;25592;49.986;11.618;2023-02-12T04:06:22;5.10;99.90
39925;DHT22;25592;49.986;11.618;2023-02-12T04:09:09;5.10;99.90
39925;DHT22;25592;49.986;11.618;2023-02-12T04:18:00;5.10;99.90
39925;DHT22;25592;49.986;11.618;2023-02-12T04:24:26;5.10;99.90
39925;DHT22;25592;49.986;11.618;2023-02-12T04:27:39;5.00;99.90
39925;DHT22;25592;49.986;11.618;2023-02-12T04:30:38;5.10;99.90
39925;DHT22;25592;49.986;11.618;2023-02-12T04:33:36;5.10;99.90
39925;DHT22;25592;49.986;11.618;2023-02-12T04:36:26;5.10;99.90
39925;DHT22;25592;49.986;11.618;2023-02-12T04:39:18;5.00;99.90
39925;DHT22;25592;49.986;11.618;2023-02-12T04:42:04;5.00;99.90
39925;DHT22;25592;49.986;11.618;2023-02-12T04:44:49;5.00;99.90
39925;DHT22;25592;49.986;11.618;2023-02-12T04:47:35;5.10;99.90
39925;DHT22;25592;49.986;11.618;2023-02-12T04:50:20;5.10;99.90
39925;DHT22;25592;49.986;11.618;2023-02-12T04:53:06;5.10;99.90
39925;DHT22;25592;49.986;11.618;2023-02-12T04:55:51;5.00;99.90
39925;DHT22;25592;49.986;11.618;2023-02-12T04:58:37;5.10;99.90
39925;DHT22;25592;49.986;11.618;2023-02-12T05:01:23;5.10;99.90
39925;DHT22;25592;49.986;11.618;2023-02-12T05:04:11;5.10;99.90
39925;DHT22;25592;49.986;11.618;2023-02-12T05:06:57;5.10;99.90
39925;DHT22;25592;49.986;11.618;2023-02-12T05:09:42;5.10;99.90
39925;DHT22;25592;49.986;11.618;2023-02-12T05:12:28;5.10;99.90
39925;DHT22;25592;49.986;11.618;2023-02-12T05:15:13;5.10;99.90
39925;DHT22;25592;49.986;11.618;2023-02-12T05:17:58;5.10;99.90
39925;DHT22;25592;49.986;11.618;2023-02-12T05:20:44;5.10;99.90
39925;DHT22;25592;49.986;11.618;2023-02-12T05:23:31;5.10;99.90
39925;DHT22;25592;49.986;11.618;2023-02-12T05:26:19;5.10;99.90
39925;DHT22;25592;49.986;11.618;2023-02-12T05:29:05;5.10;99.90
39925;DHT22;25592;49.986;11.618;2023-02-12T05:31:50;5.00;99.90
39925;DHT22;25592;49.986;11.618;2023-02-12T05:34:36;5.00;99.90
39925;DHT22;25592;49.986;11.618;2023-02-12T05:37:21;5.00;99.90
39925;DHT22;25592;49.986;11.618;2023-02-12T05:40:07;5.10;99.90
39925;DHT22;25592;49.986;11.618;2023-02-12T05:42:52;5.10;99.90
39925;DHT22;25592;49.986;11.618;2023-02-12T05:45:38;5.10;99.90
39925;DHT22;25592;49.986;11.618;2023-02-12T05:48:25;5.00;99.90
39925;DHT22;25592;49.986;11.618;2023-02-12T05:51:13;5.10;99.90
39925;DHT22;25592;49.986;11.618;2023-02-12T05:54:01;5.10;99.90
39925;DHT22;25592;49.986;11.618;2023-02-12T05:56:47;5.10;99.90
39925;DHT22;25592;49.986;11.618;2023-02-12T05:59:32;5.10;99.90
39925;DHT22;25592;49.986;11.618;2023-02-12T06:02:18;5.10;99.90
39925;DHT22;25592;49.986;11.618;2023-02-12T06:05:04;5.00;99.90
39925;DHT22;25592;49.986;11.618;2023-02-12T06:07:49;5.10;99.90
39925;DHT22;25592;49.986;11.618;2023-02-12T06:10:36;5.10;99.90
39925;DHT22;25592;49.986;11.618;2023-02-12T06:13:21;5.10;99.90
39925;DHT22;25592;49.986;11.618;2023-02-12T06:16:06;5.10;99.90
39925;DHT22;25592;49.986;11.618;2023-02-12T06:18:53;5.10;99.90
39925;DHT22;25592;49.986;11.618;2023-02-12T06:21:39;5.10;99.90
39925;DHT22;25592;49.986;11.618;2023-02-12T06:24:25;5.10;99.90
39925;DHT22;25592;49.986;11.618;2023-02-12T06:27:10;5.10;99.90
39925;DHT22;25592;49.986;11.618;2023-02-12T06:29:55;5.10;99.90
39925;DHT22;25592;49.986;11.618;2023-02-12T06:32:41;5.10;99.90
39925;DHT22;25592;49.986;11.618;2023-02-12T06:35:27;5.10;99.90
39925;DHT22;25592;49.986;11.618;2023-02-12T06:38:12;5.10;99.90
39925;DHT22;25592;49.986;11.618;2023-02-12T06:41:03;5.10;99.90
39925;DHT22;25592;49.986;11.618;2023-02-12T06:43:49;5.10;99.90
39925;DHT22;25592;49.986;11.618;2023-02-12T06:46:34;5.10;99.90
39925;DHT22;25592;49.986;11.618;2023-02-12T06:49:20;5.10;99.90
39925;DHT22;25592;49.986;11.618;2023-02-12T06:52:05;5.10;99.90
39925;DHT22;25592;49.986;11.618;2023-02-12T06:54:50;5.10;99.90
39925;DHT22;25592;49.986;11.618;2023-02-12T06:57:36;5.10;99.90
39925;DHT22;25592;49.986;11.618;2023-02-12T07:00:21;5.10;99.90
39925;DHT22;25592;49.986;11.618;2023-02-12T07:03:06;5.10;99.90
39925;DHT22;25592;49.986;11.618;2023-02-12T07:05:52;5.10;99.90
39925;DHT22;25592;49.986;11.618;2023-02-12T07:08:37;5.10;99.90
39925;DHT22;25592;49.986;11.618;2023-02-12T07:11:25;5.10;99.90
39925;DHT22;25592;49.986;11.618;2023-02-12T07:14:15;5.10;99.90
39925;DHT22;25592;49.986;11.618;2023-02-12T07:17:00;5.10;99.90
39925;DHT22;25592;49.986;11.618;2023-02-12T07:19:47;5.20;99.90
39925;DHT22;25592;49.986;11.618;2023-02-12T07:22:35;5.20;99.90
39925;DHT22;25592;49.986;11.618;2023-02-12T07:25:24;5.20;99.90
39925;DHT22;25592;49.986;11.618;2023-02-12T07:28:09;5.20;99.90
39925;DHT22;25592;49.986;11.618;2023-02-12T07:30:55;5.20;99.90
39925;DHT22;25592;49.986;11.618;2023-02-12T07:33:41;5.20;99.90
39925;DHT22;25592;49.986;11.618;2023-02-12T07:36:28;5.20;99.90
39925;DHT22;25592;49.986;11.618;2023-02-12T07:39:14;5.20;99.90
39925;DHT22;25592;49.986;11.618;2023-02-12T07:41:59;5.20;99.90
39925;DHT22;25592;49.986;11.618;2023-02-12T07:44:45;5.20;99.90
39925;DHT22;25592;49.986;11.618;2023-02-12T07:47:30;5.20;99.90
39925;DHT22;25592;49.986;11.618;2023-02-12T07:50:15;5.30;99.90
39925;DHT22;25592;49.986;11.618;2023-02-12T07:53:00;5.30;99.90
39925;DHT22;25592;49.986;11.618;2023-02-12T07:55:46;5.30;99.90
39925;DHT22;25592;49.986;11.618;2023-02-12T07:58:31;5.30;99.90
39925;DHT22;25592;49.986;11.618;2023-02-12T08:01:22;5.30;99.90
39925;DHT22;25592;49.986;11.618;2023-02-12T08:04:11;5.30;99.90
39925;DHT22;25592;49.986;11.618;2023-02-12T08:06:57;5.40;99.90
39925;DHT22;25592;49.986;11.618;2023-02-12T08:09:43;5.30;99.90
39925;DHT22;25592;49.986;11.618;2023-02-12T08:12:28;5.30;99.90
39925;DHT22;25592;49.986;11.618;2023-02-12T08:15:14;5.30;99.90
39925;DHT22;25592;49.986;11.618;2023-02-12T08:17:59;5.30;99.90
39925;DHT22;25592;49.986;11.618;2023-02-12T08:20:45;5.40;99.90
39925;DHT22;25592;49.986;11.618;2023-02-12T08:23:31;5.40;99.90
39925;DHT22;25592;49.986;11.618;2023-02-12T08:26:31;5.40;99.90
39925;DHT22;25592;49.986;11.618;2023-02-12T08:29:19;5.40;99.90
39925;DHT22;25592;49.986;11.618;2023-02-12T08:32:04;5.40;99.90
39925;DHT22;25592;49.986;11.618;2023-02-12T08:34:51;5.40;99.90
39925;DHT22;25592;49.986;11.618;2023-02-12T08:37:36;5.50;99.90
39925;DHT22;25592;49.986;11.618;2023-02-12T08:40:21;5.40;99.90
39925;DHT22;25592;49.986;11.618;2023-02-12T08:43:07;5.40;99.90
39925;DHT22;25592;49.986;11.618;2023-02-12T08:45:52;5.50;99.90
39925;DHT22;25592;49.986;11.618;2023-02-12T08:48:40;5.50;99.90
39925;DHT22;25592;49.986;11.618;2023-02-12T08:51:37;5.50;99.90
39925;DHT22;25592;49.986;11.618;2023-02-12T08:54:26;5.50;99.90
39925;DHT22;25592;49.986;11.618;2023-02-12T08:57:11;5.50;99.90
39925;DHT22;25592;49.986;11.618;2023-02-12T08:59:57;5.50;99.90
39925;DHT22;25592;49.986;11.618;2023-02-12T09:02:42;5.60;99.90
39925;DHT22;25592;49.986;11.618;2023-02-12T09:05:28;5.60;99.90
39925;DHT22;25592;49.986;11.618;2023-02-12T09:08:13;5.60;99.90
39925;DHT22;25592;49.986;11.618;2023-02-12T09:11:00;5.50;99.90
39925;DHT22;25592;49.986;11.618;2023-02-12T09:13:47;5.50;99.90
39925;DHT22;25592;49.986;11.618;2023-02-12T09:16:35;5.60;99.90
39925;DHT22;25592;49.986;11.618;2023-02-12T09:19:21;5.60;99.90
39925;DHT22;25592;49.986;11.618;2023-02-12T09:22:06;5.70;99.90
39925;DHT22;25592;49.986;11.618;2023-02-12T09:24:52;5.70;99.90
39925;DHT22;25592;49.986;11.618;2023-02-12T09:27:37;5.80;99.90
39925;DHT22;25592;49.986;11.618;2023-02-12T09:30:23;5.80;99.90
39925;DHT22;25592;49.986;11.618;2023-02-12T09:33:09;5.80;99.90
39925;DHT22;25592;49.986;11.618;2023-02-12T09:35:55;5.90;99.90
39925;DHT22;25592;49.986;11.618;2023-02-12T09:38:41;5.90;99.90
39925;DHT22;25592;49.986;11.618;2023-02-12T09:42:00;6.00;99.90
39925;DHT22;25592;49.986;11.618;2023-02-12T09:53:35;5.90;99.90
39925;DHT22;25592;49.986;11.618;2023-02-12T09:56:23;6.10;99.90
39925;DHT22;25592;49.986;11.618;2023-02-12T09:59:13;6.30;99.90
39925;DHT22;25592;49.986;11.618;2023-02-12T10:02:00;6.30;99.90
39925;DHT22;25592;49.986;11.618;2023-02-12T10:04:47;6.30;99.90
39925;DHT22;25592;49.986;11.618;2023-02-12T10:11:21;6.30;99.90
39925;DHT22;25592;49.986;11.618;2023-02-12T10:20:20;6.40;99.90
39925;DHT22;25592;49.986;11.618;2023-02-12T10:26:15;6.40;99.90
39925;DHT22;25592;49.986;11.618;2023-02-12T10:29:16;6.50;99.90
39925;DHT22;25592;49.986;11.618;2023-02-12T10:32:13;6.50;99.90
39925;DHT22;25592;49.986;11.618;2023-02-12T10:35:01;6.60;99.90
39925;DHT22;25592;49.986;11.618;2023-02-12T10:38:21;6.70;99.90
39925;DHT22;25592;49.986;11.618;2023-02-12T10:41:12;6.80;99.90
39925;DHT22;25592;49.986;11.618;2023-02-12T10:43:59;6.80;99.90
39925;DHT22;25592;49.986;11.618;2023-02-12T10:46:45;6.80;99.90
39925;DHT22;25592;49.986;11.618;2023-02-12T10:49:31;6.80;99.90
39925;DHT22;25592;49.986;11.618;2023-02-12T10:52:38;6.90;99.90
39925;DHT22;25592;49.986;11.618;2023-02-12T10:55:33;6.90;99.90
39925;DHT22;25592;49.986;11.618;2023-02-12T10:58:21;6.90;99.90
39925;DHT22;25592;49.986;11.618;2023-02-12T11:01:19;6.90;99.90
39925;DHT22;25592;49.986;11.618;2023-02-12T11:04:28;6.90;99.90
39925;DHT22;25592;49.986;11.618;2023-02-12T11:07:14;6.90;99.90
39925;DHT22;25592;49.986;11.618;2023-02-12T11:10:00;6.90;99.90
39925;DHT22;25592;49.986;11.618;2023-02-12T11:12:46;6.90;99.90
39925;DHT22;25592;49.986;11.618;2023-02-12T11:15:45;6.90;99.90
39925;DHT22;25592;49.986;11.618;2023-02-12T11:18:31;7.00;99.90
39925;DHT22;25592;49.986;11.618;2023-02-12T11:21:22;7.00;99.90
39925;DHT22;25592;49.986;11.618;2023-02-12T11:24:30;7.00;99.90
39925;DHT22;25592;49.986;11.618;2023-02-12T11:30:13;7.00;99.90
39925;DHT22;25592;49.986;11.618;2023-02-12T11:33:33;7.10;99.90
39925;DHT22;25592;49.986;11.618;2023-02-12T11:36:23;7.00;99.90
39925;DHT22;25592;49.986;11.618;2023-02-12T11:39:35;7.00;99.90
39925;DHT22;25592;49.986;11.618;2023-02-12T11:42:24;7.10;99.90
39925;DHT22;25592;49.986;11.618;2023-02-12T11:45:17;7.10;99.90
39925;DHT22;25592;49.986;11.618;2023-02-12T11:48:18;7.20;99.90
39925;DHT22;25592;49.986;11.618;2023-02-12T11:51:06;7.20;99.90
39925;DHT22;25592;49.986;11.618;2023-02-12T11:53:55;7.20;99.90
39925;DHT22;25592;49.986;11.618;2023-02-12T11:56:43;7.20;99.90
39925;DHT22;25592;49.986;11.618;2023-02-12T11:59:39;7.20;99.90
39925;DHT22;25592;49.986;11.618;2023-02-12T12:02:31;7.20;99.90
39925;DHT22;25592;49.986;11.618;2023-02-12T12:05:21;7.20;99.90
39925;DHT22;25592;49.986;11.618;2023-02-12T12:11:25;7.30;99.90
39925;DHT22;25592;49.986;11.618;2023-02-12T12:14:26;7.30;99.90
39925;DHT22;25592;49.986;11.618;2023-02-12T12:17:14;7.30;99.90
39925;DHT22;25592;49.986;11.618;2023-02-12T12:20:22;7.30;99.90
39925;DHT22;25592;49.986;11.618;2023-02-12T12:23:23;7.40;99.90
39925;DHT22;25592;49.986;11.618;2023-02-12T12:26:19;7.40;99.90
39925;DHT22;25592;49.986;11.618;2023-02-12T12:29:18;7.40;99.90
39925;DHT22;25592;49.986;11.618;2023-02-12T12:32:05;7.40;99.90
39925;DHT22;25592;49.986;11.618;2023-02-12T12:34:51;7.50;99.90
39925;DHT22;25592;49.986;11.618;2023-02-12T12:37:45;7.50;99.90
39925;DHT22;25592;49.986;11.618;2023-02-12T12:41:06;7.50;99.90
39925;DHT22;25592;49.986;11.618;2023-02-12T12:46:43;7.50;99.90
39925;DHT22;25592;49.986;11.618;2023-02-12T12:49:53;7.50;99.90
39925;DHT22;25592;49.986;11.618;2023-02-12T12:53:03;7.50;99.90
39925;DHT22;25592;49.986;11.618;2023-02-12T12:56:19;7.50;99.90
39925;DHT22;25592;49.986;11.618;2023-02-12T13:02:35;7.40;99.90
39925;DHT22;25592;49.986;11.618;2023-02-12T13:05:51;7.40;99.90
39925;DHT22;25592;49.986;11.618;2023-02-12T13:12:23;7.40;99.90
39925;DHT22;25592;49.986;11.618;2023-02-12T13:21:43;7.50;99.90
39925;DHT22;25592;49.986;11.618;2023-02-12T13:24:54;7.60;99.90
39925;DHT22;25592;49.986;11.618;2023-02-12T13:27:42;7.60;99.90
39925;DHT22;25592;49.986;11.618;2023-02-12T13:30:49;7.60;99.90
39925;DHT22;25592;49.986;11.618;2023-02-12T13:33:48;7.60;99.90
39925;DHT22;25592;49.986;11.618;2023-02-12T13:36:35;7.60;99.90
39925;DHT22;25592;49.986;11.618;2023-02-12T13:39:40;7.60;99.90
39925;DHT22;25592;49.986;11.618;2023-02-12T13:45:51;7.60;99.90
39925;DHT22;25592;49.986;11.618;2023-02-12T13:51:50;7.80;99.90
39925;DHT22;25592;49.986;11.618;2023-02-12T14:01:38;7.70;99.90
39925;DHT22;25592;49.986;11.618;2023-02-12T14:04:39;7.70;99.90
39925;DHT22;25592;49.986;11.618;2023-02-12T14:07:46;7.80;99.90
39925;DHT22;25592;49.986;11.618;2023-02-12T14:10:40;7.80;99.90
39925;DHT22;25592;49.986;11.618;2023-02-12T14:13:25;8.00;99.90
39925;DHT22;25592;49.986;11.618;2023-02-12T14:37:11;7.90;99.90
39925;DHT22;25592;49.986;11.618;2023-02-12T14:43:30;8.00;99.90
39925;DHT22;25592;49.986;11.618;2023-02-12T14:49:20;8.00;99.90
39925;DHT22;25592;49.986;11.618;2023-02-12T14:55:12;8.00;99.90
39925;DHT22;25592;49.986;11.618;2023-02-12T14:58:06;7.90;99.90
39925;DHT22;25592;49.986;11.618;2023-02-12T15:00:59;8.00;99.90
39925;DHT22;25592;49.986;11.618;2023-02-12T15:03:49;8.00;99.90
39925;DHT22;25592;49.986;11.618;2023-02-12T15:06:42;8.00;99.90
39925;DHT22;25592;49.986;11.618;2023-02-12T15:09:32;8.00;99.90
39925;DHT22;25592;49.986;11.618;2023-02-12T15:12:33;7.90;99.90
39925;DHT22;25592;49.986;11.618;2023-02-12T15:15:27;7.90;99.90
39925;DHT22;25592;49.986;11.618;2023-02-12T15:21:22;7.90;99.90
39925;DHT22;25592;49.986;11.618;2023-02-12T15:24:12;8.00;99.90
39925;DHT22;25592;49.986;11.618;2023-02-12T15:26:58;7.90;99.90
39925;DHT22;25592;49.986;11.618;2023-02-12T15:29:48;7.90;99.90
39925;DHT22;25592;49.986;11.618;2023-02-12T15:32:36;7.90;99.90
39925;DHT22;25592;49.986;11.618;2023-02-12T15:35:31;7.90;99.90
39925;DHT22;25592;49.986;11.618;2023-02-12T15:38:38;7.80;99.90
39925;DHT22;25592;49.986;11.618;2023-02-12T15:41:38;7.80;99.90
39925;DHT22;25592;49.986;11.618;2023-02-12T15:44:28;7.90;99.90
39925;DHT22;25592;49.986;11.618;2023-02-12T15:47:14;8.10;99.90
39925;DHT22;25592;49.986;11.618;2023-02-12T15:50:01;8.10;99.90
39925;DHT22;25592;49.986;11.618;2023-02-12T15:52:48;8.10;99.90
39925;DHT22;25592;49.986;11.618;2023-02-12T15:55:36;8.00;99.90
39925;DHT22;25592;49.986;11.618;2023-02-12T15:58:48;7.90;99.90
39925;DHT22;25592;49.986;11.618;2023-02-12T16:01:34;7.80;99.90
39925;DHT22;25592;49.986;11.618;2023-02-12T16:04:20;7.80;99.90
39925;DHT22;25592;49.986;11.618;2023-02-12T16:07:06;7.80;99.90
39925;DHT22;25592;49.986;11.618;2023-02-12T16:09:52;7.80;99.90
39925;DHT22;25592;49.986;11.618;2023-02-12T16:12:38;7.70;99.90
39925;DHT22;25592;49.986;11.618;2023-02-12T16:15:28;7.70;99.90
39925;DHT22;25592;49.986;11.618;2023-02-12T16:18:25;7.60;99.90
39925;DHT22;25592;49.986;11.618;2023-02-12T16:21:21;7.70;99.90
39925;DHT22;25592;49.986;11.618;2023-02-12T16:25:10;7.60;99.90
39925;DHT22;25592;49.986;11.618;2023-02-12T16:27:34;7.60;99.90
39925;DHT22;25592;49.986;11.618;2023-02-12T16:48:22;7.40;99.90
39925;DHT22;25592;49.986;11.618;2023-02-12T16:51:31;7.40;99.90
39925;DHT22;25592;49.986;11.618;2023-02-12T16:54:29;7.30;99.90
39925;DHT22;25592;49.986;11.618;2023-02-12T16:57:15;7.30;99.90
39925;DHT22;25592;49.986;11.618;2023-02-12T17:00:02;7.30;99.90
39925;DHT22;25592;49.986;11.618;2023-02-12T17:02:48;7.30;99.90
39925;DHT22;25592;49.986;11.618;2023-02-12T17:05:33;7.30;99.90
39925;DHT22;25592;49.986;11.618;2023-02-12T17:08:21;7.30;99.90
39925;DHT22;25592;49.986;11.618;2023-02-12T17:11:07;7.30;99.90
39925;DHT22;25592;49.986;11.618;2023-02-12T17:13:55;7.20;99.90
39925;DHT22;25592;49.986;11.618;2023-02-12T17:16:41;7.20;99.90
39925;DHT22;25592;49.986;11.618;2023-02-12T17:19:26;7.20;99.90
39925;DHT22;25592;49.986;11.618;2023-02-12T17:22:20;7.20;99.90
39925;DHT22;25592;49.986;11.618;2023-02-12T17:25:06;7.20;99.90
39925;DHT22;25592;49.986;11.618;2023-02-12T17:27:51;7.20;99.90
39925;DHT22;25592;49.986;11.618;2023-02-12T17:30:37;7.10;99.90
39925;DHT22;25592;49.986;11.618;2023-02-12T17:33:22;7.20;99.90
39925;DHT22;25592;49.986;11.618;2023-02-12T17:36:10;7.20;99.90
39925;DHT22;25592;49.986;11.618;2023-02-12T17:38:56;7.20;99.90
39925;DHT22;25592;49.986;11.618;2023-02-12T17:41:41;7.20;99.90
39925;DHT22;25592;49.986;11.618;2023-02-12T17:44:28;7.20;99.90
39925;DHT22;25592;49.986;11.618;2023-02-12T17:47:13;7.10;99.90
39925;DHT22;25592;49.986;11.618;2023-02-12T17:49:59;7.00;99.90
39925;DHT22;25592;49.986;11.618;2023-02-12T17:52:46;6.90;99.90
39925;DHT22;25592;49.986;11.618;2023-02-12T17:55:32;7.00;99.90
39925;DHT22;25592;49.986;11.618;2023-02-12T17:58:17;7.00;99.90
39925;DHT22;25592;49.986;11.618;2023-02-12T18:01:06;7.00;99.90
39925;DHT22;25592;49.986;11.618;2023-02-12T18:03:52;7.00;99.90
39925;DHT22;25592;49.986;11.618;2023-02-12T18:06:40;7.00;99.90
39925;DHT22;25592;49.986;11.618;2023-02-12T18:09:25;7.10;99.90
39925;DHT22;25592;49.986;11.618;2023-02-12T18:12:10;7.00;99.90
39925;DHT22;25592;49.986;11.618;2023-02-12T18:14:57;7.00;99.90
39925;DHT22;25592;49.986;11.618;2023-02-12T18:17:43;7.00;99.90
39925;DHT22;25592;49.986;11.618;2023-02-12T18:20:28;7.10;99.90
39925;DHT22;25592;49.986;11.618;2023-02-12T18:23:14;7.10;99.90
39925;DHT22;25592;49.986;11.618;2023-02-12T18:26:07;7.10;99.90
39925;DHT22;25592;49.986;11.618;2023-02-12T18:28:55;7.10;99.90
39925;DHT22;25592;49.986;11.618;2023-02-12T18:31:41;7.10;99.90
39925;DHT22;25592;49.986;11.618;2023-02-12T18:34:27;7.20;99.90
39925;DHT22;25592;49.986;11.618;2023-02-12T18:37:12;7.20;99.90
39925;DHT22;25592;49.986;11.618;2023-02-12T18:39:58;7.20;99.90
39925;DHT22;25592;49.986;11.618;2023-02-12T18:42:44;7.20;99.90
39925;DHT22;25592;49.986;11.618;2023-02-12T18:45:30;7.10;99.90
39925;DHT22;25592;49.986;11.618;2023-02-12T18:48:15;7.20;99.90
39925;DHT22;25592;49.986;11.618;2023-02-12T18:51:02;7.20;99.90
39925;DHT22;25592;49.986;11.618;2023-02-12T18:54:09;7.20;99.90
39925;DHT22;25592;49.986;11.618;2023-02-12T18:56:54;7.20;99.90
39925;DHT22;25592;49.986;11.618;2023-02-12T18:59:40;7.20;99.90
39925;DHT22;25592;49.986;11.618;2023-02-12T19:02:25;7.10;99.90
39925;DHT22;25592;49.986;11.618;2023-02-12T19:05:11;7.10;99.90
39925;DHT22;25592;49.986;11.618;2023-02-12T19:07:56;7.00;99.90
39925;DHT22;25592;49.986;11.618;2023-02-12T19:10:41;7.00;99.90
39925;DHT22;25592;49.986;11.618;2023-02-12T19:13:27;7.00;99.90
39925;DHT22;25592;49.986;11.618;2023-02-12T19:16:14;7.00;99.90
39925;DHT22;25592;49.986;11.618;2023-02-12T19:19:00;7.00;99.90
39925;DHT22;25592;49.986;11.618;2023-02-12T19:21:46;7.00;99.90
39925;DHT22;25592;49.986;11.618;2023-02-12T19:24:32;7.00;99.90
39925;DHT22;25592;49.986;11.618;2023-02-12T19:27:31;7.00;99.90
39925;DHT22;25592;49.986;11.618;2023-02-12T19:30:16;7.00;99.90
39925;DHT22;25592;49.986;11.618;2023-02-12T19:33:02;6.90;99.90
39925;DHT22;25592;49.986;11.618;2023-02-12T19:35:49;7.00;99.90
39925;DHT22;25592;49.986;11.618;2023-02-12T19:38:36;7.00;99.90
39925;DHT22;25592;49.986;11.618;2023-02-12T19:41:25;7.00;99.90
39925;DHT22;25592;49.986;11.618;2023-02-12T19:44:14;7.00;99.90
39925;DHT22;25592;49.986;11.618;2023-02-12T19:47:12;7.00;99.90
39925;DHT22;25592;49.986;11.618;2023-02-12T19:50:16;7.00;99.90
39925;DHT22;25592;49.986;11.618;2023-02-12T19:53:02;6.90;99.90
39925;DHT22;25592;49.986;11.618;2023-02-12T19:55:47;6.90;99.90
39925;DHT22;25592;49.986;11.618;2023-02-12T19:58:48;6.90;99.90
39925;DHT22;25592;49.986;11.618;2023-02-12T20:01:34;6.80;99.90
39925;DHT22;25592;49.986;11.618;2023-02-12T20:04:21;6.70;99.90
39925;DHT22;25592;49.986;11.618;2023-02-12T20:07:07;6.70;99.90